sensor_id;sensor_type;location;lat;lon;timestamp;temperature;humidity
4548;DHT22;2286;51.570;7.090;2022-09-03T00:02:32;15.90;15.50
4548;DHT22;2286;51.570;7.090;2022-09-03T00:05:05;15.80;15.50
4548;DHT22;2286;51.570;7.090;2022-09-03T00:07:41;15.90;16.00
4548;DHT22;2286;51.570;7.090;2022-09-03T00:10:15;15.80;16.20
4548;DHT22;2286;51.570;7.090;2022-09-03T00:12:46;15.70;17.20
4548;DHT22;2286;51.570;7.090;2022-09-03T00:15:17;15.70;17.10
4548;DHT22;2286;51.570;7.090;2022-09-03T00:17:48;15.70;17.50
4548;DHT22;2286;51.570;7.090;2022-09-03T00:20:20;15.70;17.90
4548;DHT22;2286;51.570;7.090;2022-09-03T00:22:51;15.60;30.50
4548;DHT22;2286;51.570;7.090;2022-09-03T00:25:24;15.50;18.80
4548;DHT22;2286;51.570;7.090;2022-09-03T00:27:54;15.60;19.80
4548;DHT22;2286;51.570;7.090;2022-09-03T00:30:22;15.40;20.00
4548;DHT22;2286;51.570;7.090;2022-09-03T00:32:56;15.40;21.10
4548;DHT22;2286;51.570;7.090;2022-09-03T00:35:29;15.40;21.60
4548;DHT22;2286;51.570;7.090;2022-09-03T00:37:59;15.40;22.90
4548;DHT22;2286;51.570;7.090;2022-09-03T00:40:48;15.30;22.80
4548;DHT22;2286;51.570;7.090;2022-09-03T00:43:29;15.40;23.10
4548;DHT22;2286;51.570;7.090;2022-09-03T00:46:08;15.30;23.60
4548;DHT22;2286;51.570;7.090;2022-09-03T00:48:54;15.30;23.90
4548;DHT22;2286;51.570;7.090;2022-09-03T00:51:27;15.30;38.50
4548;DHT22;2286;51.570;7.090;2022-09-03T00:54:07;15.20;25.60
4548;DHT22;2286;51.570;7.090;2022-09-03T00:56:43;15.20;25.70
4548;DHT22;2286;51.570;7.090;2022-09-03T00:59:20;15.20;26.10
4548;DHT22;2286;51.570;7.090;2022-09-03T01:01:59;15.30;26.20
4548;DHT22;2286;51.570;7.090;2022-09-03T01:04:38;15.20;26.50
4548;DHT22;2286;51.570;7.090;2022-09-03T01:07:15;15.20;27.40
4548;DHT22;2286;51.570;7.090;2022-09-03T01:09:52;15.20;27.60
4548;DHT22;2286;51.570;7.090;2022-09-03T01:12:33;15.20;28.90
4548;DHT22;2286;51.570;7.090;2022-09-03T01:15:09;15.00;28.70
4548;DHT22;2286;51.570;7.090;2022-09-03T01:17:57;15.00;30.40
4548;DHT22;2286;51.570;7.090;2022-09-03T01:20:46;15.00;30.80
4548;DHT22;2286;51.570;7.090;2022-09-03T01:23:45;15.00;32.10
4548;DHT22;2286;51.570;7.090;2022-09-03T01:26:28;14.90;32.70
4548;DHT22;2286;51.570;7.090;2022-09-03T01:29:05;14.90;34.70
4548;DHT22;2286;51.570;7.090;2022-09-03T01:31:44;14.80;36.00
4548;DHT22;2286;51.570;7.090;2022-09-03T01:34:19;14.90;35.80
4548;DHT22;2286;51.570;7.090;2022-09-03T01:36:56;14.80;37.10
4548;DHT22;2286;51.570;7.090;2022-09-03T01:39:34;14.70;37.90
4548;DHT22;2286;51.570;7.090;2022-09-03T01:42:11;14.70;39.90
4548;DHT22;2286;51.570;7.090;2022-09-03T01:47:51;14.70;41.70
4548;DHT22;2286;51.570;7.090;2022-09-03T01:50:32;14.70;43.70
4548;DHT22;2286;51.570;7.090;2022-09-03T01:53:06;14.70;44.00
4548;DHT22;2286;51.570;7.090;2022-09-03T01:55:43;14.60;45.20
4548;DHT22;2286;51.570;7.090;2022-09-03T01:58:16;14.60;45.00
4548;DHT22;2286;51.570;7.090;2022-09-03T02:00:49;14.70;46.60
4548;DHT22;2286;51.570;7.090;2022-09-03T02:03:18;14.60;45.40
4548;DHT22;2286;51.570;7.090;2022-09-03T02:05:45;14.60;46.80
4548;DHT22;2286;51.570;7.090;2022-09-03T02:08:12;14.50;48.30
4548;DHT22;2286;51.570;7.090;2022-09-03T02:10:41;14.60;50.20
4548;DHT22;2286;51.570;7.090;2022-09-03T02:13:12;14.50;50.90
4548;DHT22;2286;51.570;7.090;2022-09-03T02:15:44;14.50;51.40
4548;DHT22;2286;51.570;7.090;2022-09-03T02:18:15;14.50;51.70
4548;DHT22;2286;51.570;7.090;2022-09-03T02:20:43;14.50;52.60
4548;DHT22;2286;51.570;7.090;2022-09-03T02:23:12;14.40;56.20
4548;DHT22;2286;51.570;7.090;2022-09-03T02:25:43;14.40;56.60
4548;DHT22;2286;51.570;7.090;2022-09-03T02:28:11;14.40;56.80
4548;DHT22;2286;51.570;7.090;2022-09-03T02:30:39;14.30;59.80
4548;DHT22;2286;51.570;7.090;2022-09-03T02:33:06;14.30;60.60
4548;DHT22;2286;51.570;7.090;2022-09-03T02:35:34;14.30;64.30
4548;DHT22;2286;51.570;7.090;2022-09-03T02:38:09;14.30;67.20
4548;DHT22;2286;51.570;7.090;2022-09-03T02:40:36;14.20;89.40
4548;DHT22;2286;51.570;7.090;2022-09-03T02:43:05;14.20;69.50
4548;DHT22;2286;51.570;7.090;2022-09-03T02:45:35;14.20;72.40
4548;DHT22;2286;51.570;7.090;2022-09-03T02:48:03;14.20;72.10
4548;DHT22;2286;51.570;7.090;2022-09-03T02:50:30;14.20;93.20
4548;DHT22;2286;51.570;7.090;2022-09-03T02:52:58;14.20;74.20
4548;DHT22;2286;51.570;7.090;2022-09-03T02:55:25;14.10;78.80
4548;DHT22;2286;51.570;7.090;2022-09-03T02:57:52;14.10;77.00
4548;DHT22;2286;51.570;7.090;2022-09-03T03:00:19;14.10;80.80
4548;DHT22;2286;51.570;7.090;2022-09-03T03:02:46;14.10;84.30
4548;DHT22;2286;51.570;7.090;2022-09-03T03:05:19;14.10;85.10
4548;DHT22;2286;51.570;7.090;2022-09-03T03:07:47;14.00;87.00
4548;DHT22;2286;51.570;7.090;2022-09-03T03:10:15;14.00;99.90
4548;DHT22;2286;51.570;7.090;2022-09-03T03:12:42;14.00;91.30
4548;DHT22;2286;51.570;7.090;2022-09-03T03:15:10;13.90;92.60
4548;DHT22;2286;51.570;7.090;2022-09-03T03:17:36;13.90;93.90
4548;DHT22;2286;51.570;7.090;2022-09-03T03:20:04;13.90;96.20
4548;DHT22;2286;51.570;7.090;2022-09-03T03:22:31;13.90;97.40
4548;DHT22;2286;51.570;7.090;2022-09-03T03:24:58;13.80;99.80
4548;DHT22;2286;51.570;7.090;2022-09-03T03:27:26;13.80;99.80
4548;DHT22;2286;51.570;7.090;2022-09-03T03:29:53;13.80;99.90
4548;DHT22;2286;51.570;7.090;2022-09-03T03:32:20;13.80;99.90
4548;DHT22;2286;51.570;7.090;2022-09-03T03:34:47;13.80;99.90
4548;DHT22;2286;51.570;7.090;2022-09-03T03:37:15;13.80;99.90
4548;DHT22;2286;51.570;7.090;2022-09-03T03:39:42;13.80;99.90
4548;DHT22;2286;51.570;7.090;2022-09-03T03:42:09;13.80;99.90
4548;DHT22;2286;51.570;7.090;2022-09-03T03:44:37;13.80;99.90
4548;DHT22;2286;51.570;7.090;2022-09-03T03:47:04;13.80;99.90
4548;DHT22;2286;51.570;7.090;2022-09-03T03:49:31;13.70;99.90
4548;DHT22;2286;51.570;7.090;2022-09-03T03:51:58;13.70;99.90
4548;DHT22;2286;51.570;7.090;2022-09-03T03:54:25;13.70;99.90
4548;DHT22;2286;51.570;7.090;2022-09-03T03:56:52;13.70;99.90
4548;DHT22;2286;51.570;7.090;2022-09-03T03:59:18;13.60;99.90
4548;DHT22;2286;51.570;7.090;2022-09-03T04:01:47;13.60;99.90
4548;DHT22;2286;51.570;7.090;2022-09-03T04:04:15;13.60;99.90
4548;DHT22;2286;51.570;7.090;2022-09-03T04:06:42;13.50;99.90
4548;DHT22;2286;51.570;7.090;2022-09-03T04:09:09;13.50;99.90
4548;DHT22;2286;51.570;7.090;2022-09-03T04:11:36;13.40;99.90
4548;DHT22;2286;51.570;7.090;2022-09-03T04:14:03;13.40;99.90
4548;DHT22;2286;51.570;7.090;2022-09-03T04:16:30;13.30;99.90
4548;DHT22;2286;51.570;7.090;2022-09-03T04:18:59;13.40;99.90
4548;DHT22;2286;51.570;7.090;2022-09-03T04:21:28;13.40;99.90
4548;DHT22;2286;51.570;7.090;2022-09-03T04:23:56;13.30;99.90
4548;DHT22;2286;51.570;7.090;2022-09-03T04:26:25;13.30;99.90
4548;DHT22;2286;51.570;7.090;2022-09-03T04:28:52;13.30;99.90
4548;DHT22;2286;51.570;7.090;2022-09-03T04:31:20;13.20;99.90
4548;DHT22;2286;51.570;7.090;2022-09-03T04:33:47;13.20;99.90
4548;DHT22;2286;51.570;7.090;2022-09-03T04:36:16;13.20;99.90
4548;DHT22;2286;51.570;7.090;2022-09-03T04:38:45;13.10;99.90
4548;DHT22;2286;51.570;7.090;2022-09-03T04:41:14;13.10;99.90
4548;DHT22;2286;51.570;7.090;2022-09-03T04:43:41;13.10;99.90
4548;DHT22;2286;51.570;7.090;2022-09-03T04:46:09;13.00;99.90
4548;DHT22;2286;51.570;7.090;2022-09-03T04:48:37;13.10;99.90
4548;DHT22;2286;51.570;7.090;2022-09-03T04:51:06;13.10;99.90
4548;DHT22;2286;51.570;7.090;2022-09-03T04:53:36;13.10;99.90
4548;DHT22;2286;51.570;7.090;2022-09-03T04:56:12;13.10;99.90
4548;DHT22;2286;51.570;7.090;2022-09-03T04:58:39;13.10;99.90
4548;DHT22;2286;51.570;7.090;2022-09-03T05:01:08;13.10;99.90
4548;DHT22;2286;51.570;7.090;2022-09-03T05:03:35;13.10;99.90
4548;DHT22;2286;51.570;7.090;2022-09-03T05:06:03;13.10;99.90
4548;DHT22;2286;51.570;7.090;2022-09-03T05:08:31;13.10;99.90
4548;DHT22;2286;51.570;7.090;2022-09-03T05:11:03;13.10;99.90
4548;DHT22;2286;51.570;7.090;2022-09-03T05:13:31;13.10;99.90
4548;DHT22;2286;51.570;7.090;2022-09-03T05:15:59;13.10;99.90
4548;DHT22;2286;51.570;7.090;2022-09-03T05:18:27;13.20;99.90
4548;DHT22;2286;51.570;7.090;2022-09-03T05:20:58;13.20;99.90
4548;DHT22;2286;51.570;7.090;2022-09-03T05:23:25;13.20;99.90
4548;DHT22;2286;51.570;7.090;2022-09-03T05:25:56;13.30;99.90
4548;DHT22;2286;51.570;7.090;2022-09-03T05:28:25;13.30;99.90
4548;DHT22;2286;51.570;7.090;2022-09-03T05:30:59;13.30;99.90
4548;DHT22;2286;51.570;7.090;2022-09-03T05:33:26;13.30;99.90
4548;DHT22;2286;51.570;7.090;2022-09-03T05:35:53;13.30;99.90
4548;DHT22;2286;51.570;7.090;2022-09-03T05:38:20;13.40;99.90
4548;DHT22;2286;51.570;7.090;2022-09-03T05:40:47;13.40;99.90
4548;DHT22;2286;51.570;7.090;2022-09-03T05:43:14;13.50;99.90
4548;DHT22;2286;51.570;7.090;2022-09-03T05:45:43;13.50;99.90
4548;DHT22;2286;51.570;7.090;2022-09-03T05:48:10;13.60;99.90
4548;DHT22;2286;51.570;7.090;2022-09-03T05:50:37;13.60;99.90
4548;DHT22;2286;51.570;7.090;2022-09-03T05:53:04;13.70;99.90
4548;DHT22;2286;51.570;7.090;2022-09-03T05:55:31;13.80;99.90
4548;DHT22;2286;51.570;7.090;2022-09-03T05:57:58;13.90;99.90
4548;DHT22;2286;51.570;7.090;2022-09-03T06:00:25;13.90;99.90
4548;DHT22;2286;51.570;7.090;2022-09-03T06:02:54;14.00;99.90
4548;DHT22;2286;51.570;7.090;2022-09-03T06:05:22;14.10;99.90
4548;DHT22;2286;51.570;7.090;2022-09-03T06:07:50;14.20;99.90
4548;DHT22;2286;51.570;7.090;2022-09-03T06:10:17;14.20;99.90
4548;DHT22;2286;51.570;7.090;2022-09-03T06:12:44;14.30;99.90
4548;DHT22;2286;51.570;7.090;2022-09-03T06:15:14;14.40;99.90
4548;DHT22;2286;51.570;7.090;2022-09-03T06:17:41;14.50;99.90
4548;DHT22;2286;51.570;7.090;2022-09-03T06:20:09;14.60;99.90
4548;DHT22;2286;51.570;7.090;2022-09-03T06:22:36;14.60;99.90
4548;DHT22;2286;51.570;7.090;2022-09-03T06:25:04;14.70;99.90
4548;DHT22;2286;51.570;7.090;2022-09-03T06:27:32;14.80;99.90
4548;DHT22;2286;51.570;7.090;2022-09-03T06:29:59;14.90;99.90
4548;DHT22;2286;51.570;7.090;2022-09-03T06:32:25;15.00;99.90
4548;DHT22;2286;51.570;7.090;2022-09-03T06:34:53;15.10;99.90
4548;DHT22;2286;51.570;7.090;2022-09-03T06:37:22;15.20;99.90
4548;DHT22;2286;51.570;7.090;2022-09-03T06:39:48;15.30;99.90
4548;DHT22;2286;51.570;7.090;2022-09-03T06:42:16;15.40;98.70
4548;DHT22;2286;51.570;7.090;2022-09-03T06:44:43;15.40;98.40
4548;DHT22;2286;51.570;7.090;2022-09-03T06:47:10;15.50;99.90
4548;DHT22;2286;51.570;7.090;2022-09-03T06:49:37;15.60;97.70
4548;DHT22;2286;51.570;7.090;2022-09-03T06:52:04;15.70;94.50
4548;DHT22;2286;51.570;7.090;2022-09-03T06:54:32;15.80;93.80
4548;DHT22;2286;51.570;7.090;2022-09-03T06:56:59;15.80;93.10
4548;DHT22;2286;51.570;7.090;2022-09-03T06:59:26;16.00;92.50
4548;DHT22;2286;51.570;7.090;2022-09-03T07:01:53;16.10;92.80
4548;DHT22;2286;51.570;7.090;2022-09-03T07:04:20;16.20;91.90
4548;DHT22;2286;51.570;7.090;2022-09-03T07:06:49;16.30;91.30
4548;DHT22;2286;51.570;7.090;2022-09-03T07:09:16;16.40;88.70
4548;DHT22;2286;51.570;7.090;2022-09-03T07:11:45;16.50;99.20
4548;DHT22;2286;51.570;7.090;2022-09-03T07:14:12;16.50;88.20
4548;DHT22;2286;51.570;7.090;2022-09-03T07:16:40;16.60;85.60
4548;DHT22;2286;51.570;7.090;2022-09-03T07:19:08;16.70;86.50
4548;DHT22;2286;51.570;7.090;2022-09-03T07:21:35;16.80;85.00
4548;DHT22;2286;51.570;7.090;2022-09-03T07:24:03;16.90;82.50
4548;DHT22;2286;51.570;7.090;2022-09-03T07:26:32;17.00;83.40
4548;DHT22;2286;51.570;7.090;2022-09-03T07:29:00;17.20;82.00
4548;DHT22;2286;51.570;7.090;2022-09-03T07:31:30;17.30;77.10
4548;DHT22;2286;51.570;7.090;2022-09-03T07:33:59;17.40;80.80
4548;DHT22;2286;51.570;7.090;2022-09-03T07:36:27;17.60;75.70
4548;DHT22;2286;51.570;7.090;2022-09-03T07:38:56;17.70;74.50
4548;DHT22;2286;51.570;7.090;2022-09-03T07:41:24;17.80;70.90
4548;DHT22;2286;51.570;7.090;2022-09-03T07:43:52;17.90;71.80
4548;DHT22;2286;51.570;7.090;2022-09-03T07:46:22;18.00;70.30
4548;DHT22;2286;51.570;7.090;2022-09-03T07:48:50;18.20;67.10
4548;DHT22;2286;51.570;7.090;2022-09-03T07:51:18;18.30;66.80
4548;DHT22;2286;51.570;7.090;2022-09-03T07:53:46;18.40;65.70
4548;DHT22;2286;51.570;7.090;2022-09-03T07:56:13;18.50;65.60
4548;DHT22;2286;51.570;7.090;2022-09-03T07:58:41;18.60;64.10
4548;DHT22;2286;51.570;7.090;2022-09-03T08:01:10;18.70;64.70
4548;DHT22;2286;51.570;7.090;2022-09-03T08:03:42;18.90;63.40
4548;DHT22;2286;51.570;7.090;2022-09-03T08:06:10;19.00;63.50
4548;DHT22;2286;51.570;7.090;2022-09-03T08:08:37;19.10;61.10
4548;DHT22;2286;51.570;7.090;2022-09-03T08:11:06;19.30;59.20
4548;DHT22;2286;51.570;7.090;2022-09-03T08:13:34;19.40;58.50
4548;DHT22;2286;51.570;7.090;2022-09-03T08:16:02;19.50;58.10
4548;DHT22;2286;51.570;7.090;2022-09-03T08:18:30;19.50;58.20
4548;DHT22;2286;51.570;7.090;2022-09-03T08:21:04;19.70;57.70
4548;DHT22;2286;51.570;7.090;2022-09-03T08:23:33;19.80;57.40
4548;DHT22;2286;51.570;7.090;2022-09-03T08:26:02;19.90;54.90
4548;DHT22;2286;51.570;7.090;2022-09-03T08:28:29;20.10;54.50
4548;DHT22;2286;51.570;7.090;2022-09-03T08:31:04;20.10;52.80
4548;DHT22;2286;51.570;7.090;2022-09-03T08:33:31;20.20;53.50
4548;DHT22;2286;51.570;7.090;2022-09-03T08:36:07;20.40;72.80
4548;DHT22;2286;51.570;7.090;2022-09-03T08:38:35;20.60;52.80
4548;DHT22;2286;51.570;7.090;2022-09-03T08:41:08;20.70;52.10
4548;DHT22;2286;51.570;7.090;2022-09-03T08:43:53;20.80;52.20
4548;DHT22;2286;51.570;7.090;2022-09-03T08:46:25;20.90;52.50
4548;DHT22;2286;51.570;7.090;2022-09-03T08:48:54;21.10;50.20
4548;DHT22;2286;51.570;7.090;2022-09-03T08:51:23;21.10;50.50
4548;DHT22;2286;51.570;7.090;2022-09-03T08:53:53;21.20;50.10
4548;DHT22;2286;51.570;7.090;2022-09-03T08:56:25;21.30;49.80
4548;DHT22;2286;51.570;7.090;2022-09-03T08:58:53;21.40;48.40
4548;DHT22;2286;51.570;7.090;2022-09-03T09:01:29;21.50;49.30
4548;DHT22;2286;51.570;7.090;2022-09-03T09:04:07;21.70;49.20
4548;DHT22;2286;51.570;7.090;2022-09-03T09:06:42;22.10;48.30
4548;DHT22;2286;51.570;7.090;2022-09-03T09:09:21;22.40;47.90
4548;DHT22;2286;51.570;7.090;2022-09-03T09:11:57;22.50;47.60
4548;DHT22;2286;51.570;7.090;2022-09-03T09:14:32;22.40;45.50
4548;DHT22;2286;51.570;7.090;2022-09-03T09:17:07;22.60;45.80
4548;DHT22;2286;51.570;7.090;2022-09-03T09:19:43;22.70;45.30
4548;DHT22;2286;51.570;7.090;2022-09-03T09:22:22;22.90;44.80
4548;DHT22;2286;51.570;7.090;2022-09-03T09:24:53;23.00;44.40
4548;DHT22;2286;51.570;7.090;2022-09-03T09:27:23;23.20;43.70
4548;DHT22;2286;51.570;7.090;2022-09-03T09:29:51;23.40;42.60
4548;DHT22;2286;51.570;7.090;2022-09-03T09:32:19;23.60;58.40
4548;DHT22;2286;51.570;7.090;2022-09-03T09:34:46;23.80;42.90
4548;DHT22;2286;51.570;7.090;2022-09-03T09:37:15;24.10;42.60
4548;DHT22;2286;51.570;7.090;2022-09-03T09:39:54;24.20;42.00
4548;DHT22;2286;51.570;7.090;2022-09-03T09:42:22;24.20;40.10
4548;DHT22;2286;51.570;7.090;2022-09-03T09:44:49;24.50;40.60
4548;DHT22;2286;51.570;7.090;2022-09-03T09:47:23;24.70;40.20
4548;DHT22;2286;51.570;7.090;2022-09-03T09:49:53;25.00;39.40
4548;DHT22;2286;51.570;7.090;2022-09-03T09:52:24;25.40;40.00
4548;DHT22;2286;51.570;7.090;2022-09-03T09:55:05;25.60;39.00
4548;DHT22;2286;51.570;7.090;2022-09-03T09:57:33;26.00;38.50
4548;DHT22;2286;51.570;7.090;2022-09-03T10:00:05;26.30;38.00
4548;DHT22;2286;51.570;7.090;2022-09-03T10:02:35;26.60;37.90
4548;DHT22;2286;51.570;7.090;2022-09-03T10:05:13;27.10;38.10
4548;DHT22;2286;51.570;7.090;2022-09-03T10:07:41;27.50;36.80
4548;DHT22;2286;51.570;7.090;2022-09-03T10:10:15;28.00;37.20
4548;DHT22;2286;51.570;7.090;2022-09-03T10:12:47;28.80;38.30
4548;DHT22;2286;51.570;7.090;2022-09-03T10:15:21;29.50;38.60
4548;DHT22;2286;51.570;7.090;2022-09-03T10:18:01;30.00;38.10
4548;DHT22;2286;51.570;7.090;2022-09-03T10:20:34;30.80;37.80
4548;DHT22;2286;51.570;7.090;2022-09-03T10:23:12;31.50;38.30
4548;DHT22;2286;51.570;7.090;2022-09-03T10:25:48;31.50;35.30
4548;DHT22;2286;51.570;7.090;2022-09-03T10:28:20;32.10;37.20
4548;DHT22;2286;51.570;7.090;2022-09-03T10:31:16;33.10;38.30
4548;DHT22;2286;51.570;7.090;2022-09-03T10:33:50;33.30;37.90
4548;DHT22;2286;51.570;7.090;2022-09-03T10:36:23;33.80;38.00
4548;DHT22;2286;51.570;7.090;2022-09-03T10:38:57;33.50;35.70
4548;DHT22;2286;51.570;7.090;2022-09-03T10:41:45;34.30;38.20
4548;DHT22;2286;51.570;7.090;2022-09-03T10:44:35;34.70;36.80
4548;DHT22;2286;51.570;7.090;2022-09-03T10:47:18;34.90;36.40
4548;DHT22;2286;51.570;7.090;2022-09-03T10:49:53;35.30;52.40
4548;DHT22;2286;51.570;7.090;2022-09-03T10:52:27;35.40;35.40
4548;DHT22;2286;51.570;7.090;2022-09-03T10:55:15;35.40;34.00
4548;DHT22;2286;51.570;7.090;2022-09-03T10:57:50;34.90;31.00
4548;DHT22;2286;51.570;7.090;2022-09-03T11:00:19;34.50;28.90
4548;DHT22;2286;51.570;7.090;2022-09-03T11:03:18;33.40;25.20
4548;DHT22;2286;51.570;7.090;2022-09-03T11:05:59;32.40;22.20
4548;DHT22;2286;51.570;7.090;2022-09-03T11:08:30;33.00;24.60
4548;DHT22;2286;51.570;7.090;2022-09-03T11:11:08;34.20;27.70
4548;DHT22;2286;51.570;7.090;2022-09-03T11:13:40;34.90;28.40
4548;DHT22;2286;51.570;7.090;2022-09-03T11:16:14;35.80;30.70
4548;DHT22;2286;51.570;7.090;2022-09-03T11:18:47;35.80;29.70
4548;DHT22;2286;51.570;7.090;2022-09-03T11:21:18;36.30;30.10
4548;DHT22;2286;51.570;7.090;2022-09-03T11:23:48;36.70;31.00
4548;DHT22;2286;51.570;7.090;2022-09-03T11:26:20;38.00;34.00
4548;DHT22;2286;51.570;7.090;2022-09-03T11:28:53;37.40;30.40
4548;DHT22;2286;51.570;7.090;2022-09-03T11:31:25;36.70;27.90
4548;DHT22;2286;51.570;7.090;2022-09-03T11:33:59;36.10;25.90
4548;DHT22;2286;51.570;7.090;2022-09-03T11:36:33;36.10;25.40
4548;DHT22;2286;51.570;7.090;2022-09-03T11:39:11;35.60;24.30
4548;DHT22;2286;51.570;7.090;2022-09-03T11:41:39;35.60;23.80
4548;DHT22;2286;51.570;7.090;2022-09-03T11:44:19;34.50;19.70
4548;DHT22;2286;51.570;7.090;2022-09-03T11:46:53;33.10;15.70
4548;DHT22;2286;51.570;7.090;2022-09-03T11:49:27;32.30;14.30
4548;DHT22;2286;51.570;7.090;2022-09-03T11:51:58;32.40;14.00
4548;DHT22;2286;51.570;7.090;2022-09-03T11:54:26;33.40;18.00
4548;DHT22;2286;51.570;7.090;2022-09-03T11:57:09;33.90;18.80
4548;DHT22;2286;51.570;7.090;2022-09-03T11:59:39;34.40;20.10
4548;DHT22;2286;51.570;7.090;2022-09-03T12:02:15;35.60;23.50
4548;DHT22;2286;51.570;7.090;2022-09-03T12:04:50;36.80;26.60
4548;DHT22;2286;51.570;7.090;2022-09-03T12:07:38;38.60;30.70
4548;DHT22;2286;51.570;7.090;2022-09-03T12:10:28;39.10;31.00
4548;DHT22;2286;51.570;7.090;2022-09-03T12:13:09;39.90;31.90
4548;DHT22;2286;51.570;7.090;2022-09-03T12:18:38;38.20;39.70
4548;DHT22;2286;51.570;7.090;2022-09-03T12:21:08;38.20;25.50
4548;DHT22;2286;51.570;7.090;2022-09-03T12:23:40;38.90;27.40
4548;DHT22;2286;51.570;7.090;2022-09-03T12:26:11;39.50;28.70
4548;DHT22;2286;51.570;7.090;2022-09-03T12:28:41;40.10;28.50
4548;DHT22;2286;51.570;7.090;2022-09-03T12:31:13;39.60;27.70
4548;DHT22;2286;51.570;7.090;2022-09-03T12:33:50;39.40;26.50
4548;DHT22;2286;51.570;7.090;2022-09-03T12:36:18;40.00;27.80
4548;DHT22;2286;51.570;7.090;2022-09-03T12:38:46;40.90;30.70
4548;DHT22;2286;51.570;7.090;2022-09-03T12:41:24;41.00;29.40
4548;DHT22;2286;51.570;7.090;2022-09-03T12:43:55;40.60;28.10
4548;DHT22;2286;51.570;7.090;2022-09-03T12:46:23;41.20;27.90
4548;DHT22;2286;51.570;7.090;2022-09-03T12:48:55;41.20;28.80
4548;DHT22;2286;51.570;7.090;2022-09-03T12:51:23;40.20;25.50
4548;DHT22;2286;51.570;7.090;2022-09-03T12:53:51;40.30;24.90
4548;DHT22;2286;51.570;7.090;2022-09-03T12:56:19;39.50;22.20
4548;DHT22;2286;51.570;7.090;2022-09-03T12:58:51;38.70;20.30
4548;DHT22;2286;51.570;7.090;2022-09-03T13:01:25;39.30;22.10
4548;DHT22;2286;51.570;7.090;2022-09-03T13:03:58;39.40;21.50
4548;DHT22;2286;51.570;7.090;2022-09-03T13:06:30;39.70;22.70
4548;DHT22;2286;51.570;7.090;2022-09-03T13:09:00;39.80;23.20
4548;DHT22;2286;51.570;7.090;2022-09-03T13:11:28;39.20;20.30
4548;DHT22;2286;51.570;7.090;2022-09-03T13:14:00;39.50;21.10
4548;DHT22;2286;51.570;7.090;2022-09-03T13:17:07;39.90;22.90
4548;DHT22;2286;51.570;7.090;2022-09-03T13:19:47;39.50;33.40
4548;DHT22;2286;51.570;7.090;2022-09-03T13:22:21;39.50;20.50
4548;DHT22;2286;51.570;7.090;2022-09-03T13:25:03;39.60;21.70
4548;DHT22;2286;51.570;7.090;2022-09-03T13:27:40;40.40;22.90
4548;DHT22;2286;51.570;7.090;2022-09-03T13:30:11;41.00;24.90
4548;DHT22;2286;51.570;7.090;2022-09-03T13:32:49;41.70;25.20
4548;DHT22;2286;51.570;7.090;2022-09-03T13:35:29;41.60;24.60
4548;DHT22;2286;51.570;7.090;2022-09-03T13:38:04;40.90;22.70
4548;DHT22;2286;51.570;7.090;2022-09-03T13:40:36;41.80;25.80
4548;DHT22;2286;51.570;7.090;2022-09-03T13:43:19;42.50;26.40
4548;DHT22;2286;51.570;7.090;2022-09-03T13:45:53;42.00;25.40
4548;DHT22;2286;51.570;7.090;2022-09-03T13:48:27;42.30;25.70
4548;DHT22;2286;51.570;7.090;2022-09-03T13:51:18;42.70;26.00
4548;DHT22;2286;51.570;7.090;2022-09-03T13:53:56;42.40;25.80
4548;DHT22;2286;51.570;7.090;2022-09-03T13:56:35;43.30;27.50
4548;DHT22;2286;51.570;7.090;2022-09-03T13:59:14;43.80;28.10
4548;DHT22;2286;51.570;7.090;2022-09-03T14:01:59;44.30;29.20
4548;DHT22;2286;51.570;7.090;2022-09-03T14:04:39;44.30;29.80
4548;DHT22;2286;51.570;7.090;2022-09-03T14:07:12;44.90;29.20
4548;DHT22;2286;51.570;7.090;2022-09-03T14:09:50;44.00;26.90
4548;DHT22;2286;51.570;7.090;2022-09-03T14:12:20;43.70;26.20
4548;DHT22;2286;51.570;7.090;2022-09-03T14:14:53;42.90;23.30
4548;DHT22;2286;51.570;7.090;2022-09-03T14:17:31;41.00;17.30
4548;DHT22;2286;51.570;7.090;2022-09-03T14:20:05;38.70;11.50
4548;DHT22;2286;51.570;7.090;2022-09-03T14:22:47;37.70;9.70
4548;DHT22;2286;51.570;7.090;2022-09-03T14:25:17;36.70;6.80
4548;DHT22;2286;51.570;7.090;2022-09-03T14:27:45;35.80;5.60
4548;DHT22;2286;51.570;7.090;2022-09-03T14:30:32;36.00;6.70
4548;DHT22;2286;51.570;7.090;2022-09-03T14:33:09;36.20;8.00
4548;DHT22;2286;51.570;7.090;2022-09-03T14:36:00;35.90;7.40
4548;DHT22;2286;51.570;7.090;2022-09-03T14:38:56;35.50;6.80
4548;DHT22;2286;51.570;7.090;2022-09-03T14:41:56;35.20;6.20
4548;DHT22;2286;51.570;7.090;2022-09-03T14:47:48;35.00;6.50
4548;DHT22;2286;51.570;7.090;2022-09-03T14:50:33;34.90;5.70
4548;DHT22;2286;51.570;7.090;2022-09-03T14:53:20;35.00;6.90
4548;DHT22;2286;51.570;7.090;2022-09-03T14:56:03;35.40;8.70
4548;DHT22;2286;51.570;7.090;2022-09-03T14:58:42;36.80;12.80
4548;DHT22;2286;51.570;7.090;2022-09-03T15:01:12;39.10;19.00
4548;DHT22;2286;51.570;7.090;2022-09-03T15:04:12;39.50;18.80
4548;DHT22;2286;51.570;7.090;2022-09-03T15:06:56;39.20;16.90
4548;DHT22;2286;51.570;7.090;2022-09-03T15:09:32;38.50;27.10
4548;DHT22;2286;51.570;7.090;2022-09-03T15:12:09;39.60;18.30
4548;DHT22;2286;51.570;7.090;2022-09-03T15:14:49;41.50;24.30
4548;DHT22;2286;51.570;7.090;2022-09-03T15:17:29;42.00;23.60
4548;DHT22;2286;51.570;7.090;2022-09-03T15:20:14;41.50;22.00
4548;DHT22;2286;51.570;7.090;2022-09-03T15:23:01;41.80;24.20
4548;DHT22;2286;51.570;7.090;2022-09-03T15:25:42;42.40;24.50
4548;DHT22;2286;51.570;7.090;2022-09-03T15:28:14;43.20;26.10
4548;DHT22;2286;51.570;7.090;2022-09-03T15:30:47;44.10;27.60
4548;DHT22;2286;51.570;7.090;2022-09-03T15:33:22;43.20;24.10
4548;DHT22;2286;51.570;7.090;2022-09-03T15:36:08;41.60;31.00
4548;DHT22;2286;51.570;7.090;2022-09-03T15:38:46;39.00;11.50
4548;DHT22;2286;51.570;7.090;2022-09-03T15:41:28;37.00;7.50
4548;DHT22;2286;51.570;7.090;2022-09-03T15:43:58;35.60;6.20
4548;DHT22;2286;51.570;7.090;2022-09-03T15:46:44;34.90;3.70
4548;DHT22;2286;51.570;7.090;2022-09-03T15:49:20;34.20;2.90
4548;DHT22;2286;51.570;7.090;2022-09-03T15:51:58;34.80;4.60
4548;DHT22;2286;51.570;7.090;2022-09-03T15:54:34;34.90;5.10
4548;DHT22;2286;51.570;7.090;2022-09-03T15:57:12;34.90;5.30
4548;DHT22;2286;51.570;7.090;2022-09-03T15:59:50;34.40;4.10
4548;DHT22;2286;51.570;7.090;2022-09-03T16:02:24;34.50;5.30
4548;DHT22;2286;51.570;7.090;2022-09-03T16:05:02;34.30;5.10
4548;DHT22;2286;51.570;7.090;2022-09-03T16:07:46;33.50;2.60
4548;DHT22;2286;51.570;7.090;2022-09-03T16:10:16;32.60;1.00
4548;DHT22;2286;51.570;7.090;2022-09-03T16:12:56;32.20;1.00
4548;DHT22;2286;51.570;7.090;2022-09-03T16:15:28;31.90;1.00
4548;DHT22;2286;51.570;7.090;2022-09-03T16:18:00;31.70;1.00
4548;DHT22;2286;51.570;7.090;2022-09-03T16:20:34;31.50;1.00
4548;DHT22;2286;51.570;7.090;2022-09-03T16:23:06;31.40;1.00
4548;DHT22;2286;51.570;7.090;2022-09-03T16:25:46;31.20;1.00
4548;DHT22;2286;51.570;7.090;2022-09-03T16:28:19;31.00;1.00
4548;DHT22;2286;51.570;7.090;2022-09-03T16:31:01;30.80;1.00
4548;DHT22;2286;51.570;7.090;2022-09-03T16:33:38;30.70;1.00
4548;DHT22;2286;51.570;7.090;2022-09-03T16:36:22;30.70;1.00
4548;DHT22;2286;51.570;7.090;2022-09-03T16:39:00;30.80;1.00
4548;DHT22;2286;51.570;7.090;2022-09-03T16:41:34;31.10;1.30
4548;DHT22;2286;51.570;7.090;2022-09-03T16:44:09;31.30;1.60
4548;DHT22;2286;51.570;7.090;2022-09-03T16:46:46;31.10;1.60
4548;DHT22;2286;51.570;7.090;2022-09-03T16:49:34;31.50;3.90